Palermo / Punta Raisi Airport LICJ

Flugplatz Daten

Name: Palermo / Punta Raisi Airport

Ident: LICJ

Lat: 38,17599869

Long: 13,0909996

Platzhöhe: 65 ft

IataCode: PMO

City: Palermo

Metar

2021/08/05 14:50
LICJ 051450Z 33007KT CAVOK 29/20 Q1013

Taf

2021/08/05 12:21
TAF LICJ 051100Z 0512/0612 01014KT CAVOK
BECMG 0519/0521 VRB05KT
BECMG 0606/0608 01016KT
Gewünschte Webcam nicht vorhanden? Dann fügen Sie eine hinzu. Sie wird dann so schnell wie möglich freigeschaltet
Url: Title: